Time;durP1;ratioP1;P1;durP2;ratioP2;P2;SDS_P1;SDS_P2;PMS_P1;PMS_P2;Temp;Humidity;BMP_temperature;BMP_pressure;BME280_temperature;BME280_humidity;BME280_pressure;Samples;Min_cycle;Max_cycle;Signal;HPM_P1;HPM_P2
2021/03/06 00:00:57;;;;;;;23.10;11.93;;;;;;;10.14;32.79;95256.22;5111275;28;20859;-72
2021/03/06 00:03:26;;;;;;;25.63;12.20;;;;;;;10.08;33.63;95251.16;5112097;28;20436;-70
2021/03/06 00:05:56;;;;;;;22.10;12.87;;;;;;;10.05;33.15;95256.88;5111386;28;20460;-71
2021/03/06 00:08:24;;;;;;;20.77;12.90;;;;;;;10.05;33.47;95251.66;5112036;28;20420;-69
2021/03/06 00:10:53;;;;;;;17.93;12.40;;;;;;;10.17;33.72;95254.97;5110945;28;20448;-68
2021/03/06 00:13:20;;;;;;;24.20;12.77;;;;;;;10.09;34.11;95255.41;5112264;28;20440;-71
2021/03/06 00:15:47;;;;;;;22.30;13.13;;;;;;;10.12;33.42;95257.53;5111771;28;20450;-71
2021/03/06 00:18:14;;;;;;;20.70;12.20;;;;;;;10.20;32.77;95255.25;5111660;28;20421;-68
2021/03/06 00:20:40;;;;;;;21.47;12.20;;;;;;;10.30;32.91;95257.22;5111086;28;20482;-70
2021/03/06 00:23:07;;;;;;;19.20;11.80;;;;;;;10.14;33.08;95263.31;5111820;27;20444;-70
2021/03/06 00:25:33;;;;;;;20.83;12.27;;;;;;;10.20;33.20;95259.69;5111435;28;20440;-69
2021/03/06 00:28:00;;;;;;;21.40;12.20;;;;;;;10.17;32.86;95273.28;5108870;28;20443;-69
2021/03/06 00:30:26;;;;;;;17.10;11.77;;;;;;;10.07;33.75;95265.28;5090709;28;20437;-70
2021/03/06 00:32:52;;;;;;;18.60;11.63;;;;;;;10.00;33.12;95264.66;5091582;28;20607;-71
2021/03/06 00:35:19;;;;;;;23.57;12.00;;;;;;;10.10;32.83;95259.59;5090752;28;20988;-72
2021/03/06 00:37:46;;;;;;;25.97;12.23;;;;;;;10.21;33.08;95266.53;5090756;28;20978;-69
2021/03/06 00:40:13;;;;;;;20.33;11.87;;;;;;;10.13;32.79;95259.09;5090285;28;20449;-70
2021/03/06 00:42:40;;;;;;;18.23;11.83;;;;;;;10.11;32.77;95261.16;5091355;28;20446;-69
2021/03/06 00:45:08;;;;;;;26.00;11.63;;;;;;;10.13;33.07;95264.31;5090542;28;21046;-69
2021/03/06 00:47:36;;;;;;;20.33;12.43;;;;;;;10.12;32.82;95263.56;5091304;28;20439;-71
2021/03/06 00:50:13;;;;;;;23.87;11.70;;;;;;;9.99;32.97;95263.09;5088862;28;20498;-68
2021/03/06 00:52:40;;;;;;;21.80;11.13;;;;;;;9.90;33.00;95264.53;5089777;28;20447;-69
2021/03/06 00:55:09;;;;;;;22.80;11.63;;;;;;;9.92;33.70;95267.69;5088759;28;20469;-68
2021/03/06 00:57:36;;;;;;;17.80;11.40;;;;;;;9.95;33.40;95265.41;5091079;28;20448;-67
2021/03/06 01:00:04;;;;;;;18.03;11.73;;;;;;;9.98;32.97;95256.28;5088901;28;20444;-67
2021/03/06 01:02:32;;;;;;;21.80;12.20;;;;;;;10.02;33.93;95262.59;5090331;28;20491;-68
2021/03/06 01:05:03;;;;;;;21.77;12.03;;;;;;;9.99;33.73;95256.03;5088329;28;20508;-69
2021/03/06 01:07:30;;;;;;;23.03;12.53;;;;;;;9.88;34.69;95261.38;5090598;28;20984;-69
2021/03/06 01:09:56;;;;;;;23.50;12.30;;;;;;;10.09;34.01;95247.56;5090067;28;20468;-66
2021/03/06 01:12:24;;;;;;;23.73;12.13;;;;;;;10.10;34.51;95241.25;5090784;28;20445;-67
2021/03/06 01:14:50;;;;;;;23.43;13.30;;;;;;;10.04;34.59;95247.44;5090382;28;20441;-67
2021/03/06 01:17:17;;;;;;;22.33;12.60;;;;;;;10.06;34.72;95242.75;5090602;28;20494;-68
2021/03/06 01:19:43;;;;;;;30.13;13.93;;;;;;;9.79;35.74;95241.88;5089862;28;20475;-68
2021/03/06 01:22:09;;;;;;;22.30;13.33;;;;;;;9.70;35.55;95244.13;5089693;28;20473;-68
2021/03/06 01:24:36;;;;;;;22.00;13.20;;;;;;;9.71;36.17;95239.66;5089797;28;20433;-70
2021/03/06 01:27:03;;;;;;;19.77;13.30;;;;;;;9.69;36.95;95246.97;5089032;28;20430;-67
2021/03/06 01:29:29;;;;;;;23.17;11.93;;;;;;;9.48;37.29;95239.88;5089479;28;20449;-67
2021/03/06 01:31:56;;;;;;;19.53;12.33;;;;;;;9.59;37.45;95237.16;5090346;28;20433;-68
2021/03/06 01:34:23;;;;;;;22.20;12.00;;;;;;;9.65;37.93;95240.66;5089676;28;20506;-66
2021/03/06 01:36:49;;;;;;;21.43;12.30;;;;;;;9.44;38.46;95244.78;5090043;28;20460;-67
2021/03/06 01:39:16;;;;;;;21.33;12.23;;;;;;;9.70;37.73;95248.56;5089562;28;20470;-66
2021/03/06 01:41:42;;;;;;;16.77;11.73;;;;;;;9.65;37.58;95243.25;5101740;28;20499;-66
2021/03/06 01:44:10;;;;;;;19.20;11.77;;;;;;;9.62;38.33;95248.94;5110750;28;20432;-67
2021/03/06 01:46:36;;;;;;;18.03;11.50;;;;;;;9.54;38.57;95250.19;5110492;28;20951;-69
2021/03/06 01:49:03;;;;;;;21.50;12.83;;;;;;;9.48;39.00;95250.31;5110511;28;20440;-69
2021/03/06 01:51:31;;;;;;;18.87;12.20;;;;;;;9.54;39.18;95244.16;5110376;28;20444;-67
2021/03/06 01:53:59;;;;;;;19.93;12.67;;;;;;;9.44;39.63;95249.22;5110922;28;20441;-66
2021/03/06 01:56:27;;;;;;;25.50;12.77;;;;;;;9.62;38.90;95256.81;5091761;28;20456;-66
2021/03/06 01:58:54;;;;;;;22.93;12.10;;;;;;;9.62;39.14;95247.13;5090125;28;20421;-66
2021/03/06 02:01:20;;;;;;;22.43;12.10;;;;;;;9.58;39.55;95250.50;5089955;28;20546;-68
2021/03/06 02:03:47;;;;;;;26.77;16.10;;;;;;;9.05;40.51;95256.22;5090533;28;20518;-69
2021/03/06 02:06:17;;;;;;;36.67;20.83;;;;;;;8.75;39.87;95261.72;5089980;28;20476;-67
2021/03/06 02:08:43;;;;;;;38.80;21.13;;;;;;;8.86;39.76;95267.91;5090457;28;20456;-67
2021/03/06 02:11:10;;;;;;;40.17;22.07;;;;;;;8.48;40.29;95255.47;5089757;28;20530;-68
2021/03/06 02:13:58;;;;;;;39.90;21.97;;;;;;;8.38;40.26;95260.50;5089775;28;20487;-66
2021/03/06 02:16:40;;;;;;;40.20;23.20;;;;;;;8.29;40.61;95261.06;5090173;28;20449;-69
2021/03/06 02:19:34;;;;;;;38.17;21.63;;;;;;;8.34;40.18;95263.81;5089592;28;20539;-67
2021/03/06 02:22:19;;;;;;;40.03;21.43;;;;;;;8.13;40.61;95273.03;5089787;28;20484;-70
2021/03/06 02:24:58;;;;;;;27.33;15.53;;;;;;;8.40;41.80;95263.66;5088409;28;20445;-70
2021/03/06 02:27:27;;;;;;;24.63;15.43;;;;;;;8.50;42.05;95258.66;5089664;28;20417;-67
2021/03/06 02:29:59;;;;;;;24.70;14.43;;;;;;;8.51;42.61;95269.88;5089828;28;20456;-70
2021/03/06 02:32:30;;;;;;;25.17;15.03;;;;;;;8.56;42.51;95262.16;5089700;28;20505;-69
2021/03/06 02:35:20;;;;;;;21.07;14.33;;;;;;;8.44;43.65;95270.00;5093651;28;20445;-69
2021/03/06 02:37:49;;;;;;;24.60;12.93;;;;;;;8.60;42.72;95269.25;5093590;28;20429;-67
2021/03/06 02:40:16;;;;;;;22.80;13.63;;;;;;;8.56;42.63;95236.78;5093727;28;20823;-68
2021/03/06 02:42:44;;;;;;;19.23;13.20;;;;;;;8.75;42.69;95268.75;5093868;28;20487;-68
2021/03/06 02:45:12;;;;;;;18.90;13.37;;;;;;;8.31;43.39;95241.56;5094037;28;20795;-68
2021/03/06 02:47:39;;;;;;;19.43;12.67;;;;;;;8.55;43.65;95269.19;5093638;28;20447;-67
2021/03/06 02:50:08;;;;;;;23.47;13.80;;;;;;;8.39;44.06;95276.97;5093705;28;20448;-69
2021/03/06 02:52:35;;;;;;;19.27;13.30;;;;;;;8.53;43.94;95279.06;5093725;28;20429;-67
2021/03/06 02:55:04;;;;;;;20.23;12.83;;;;;;;8.63;43.22;95279.22;5094115;28;20460;-65
2021/03/06 02:57:56;;;;;;;19.60;13.57;;;;;;;8.59;43.45;95277.34;5094318;28;20524;-69
2021/03/06 03:00:40;;;;;;;21.67;13.47;;;;;;;8.41;43.82;95288.72;5093416;28;20433;-72
2021/03/06 03:03:22;;;;;;;24.97;13.63;;;;;;;8.37;44.34;95279.81;5093037;28;20494;-66
2021/03/06 03:06:07;;;;;;;22.47;12.27;;;;;;;8.35;44.51;95297.50;5092952;28;20467;-67
2021/03/06 03:09:07;;;;;;;21.17;13.30;;;;;;;8.52;44.25;95300.97;5093067;28;20437;-66
2021/03/06 03:11:58;;;;;;;19.97;13.27;;;;;;;8.36;43.96;95311.38;5092999;28;20486;-66
2021/03/06 03:14:46;;;;;;;21.63;14.27;;;;;;;8.28;45.04;95301.28;5093298;28;20440;-68
2021/03/06 03:17:26;;;;;;;22.33;13.87;;;;;;;8.05;45.38;95307.28;5093026;28;20635;-67
2021/03/06 03:20:39;;;;;;;20.43;13.33;;;;;;;8.26;45.42;95313.75;5092987;28;20423;-69
2021/03/06 03:23:14;;;;;;;19.93;13.80;;;;;;;8.13;44.98;95309.56;5030276;28;20534;-69
2021/03/06 03:26:04;;;;;;;25.23;13.50;;;;;;;8.12;44.93;95318.41;5092845;28;20444;-68
2021/03/06 03:28:32;;;;;;;22.13;13.77;;;;;;;8.15;44.90;95317.97;5092766;28;20435;-66
2021/03/06 03:31:00;;;;;;;21.90;13.90;;;;;;;8.23;45.29;95320.19;5093069;28;20449;-68
2021/03/06 03:33:28;;;;;;;21.00;13.53;;;;;;;8.18;44.85;95333.16;5092846;28;20498;-68
2021/03/06 03:35:55;;;;;;;24.57;13.60;;;;;;;8.20;45.33;95331.09;5092621;28;20817;-69
2021/03/06 03:38:23;;;;;;;23.63;12.87;;;;;;;7.94;46.24;95339.41;5092768;28;20962;-67
2021/03/06 03:40:50;;;;;;;20.77;13.87;;;;;;;7.84;45.86;95336.59;5092454;28;20460;-67
2021/03/06 03:43:18;;;;;;;20.90;14.10;;;;;;;7.95;45.89;95334.00;5092422;28;20532;-69
2021/03/06 03:45:45;;;;;;;24.30;13.93;;;;;;;7.49;47.00;95335.78;5091569;28;20981;-69
2021/03/06 03:48:11;;;;;;;24.40;14.27;;;;;;;7.90;46.36;95346.13;5092589;28;20544;-68
2021/03/06 03:50:38;;;;;;;21.23;13.30;;;;;;;8.05;45.63;95341.22;5092309;28;20433;-68
2021/03/06 03:53:04;;;;;;;24.10;14.00;;;;;;;7.94;45.32;95332.38;5090800;28;20456;-70
2021/03/06 03:55:31;;;;;;;22.13;14.83;;;;;;;8.07;45.66;95347.00;5092381;28;20425;-69
2021/03/06 03:57:58;;;;;;;26.53;14.33;;;;;;;8.20;45.07;95352.00;5092377;28;20448;-69
2021/03/06 04:00:24;;;;;;;19.73;13.60;;;;;;;8.22;45.11;95360.38;5092479;28;20474;-68
2021/03/06 04:02:51;;;;;;;24.07;13.47;;;;;;;8.26;45.19;95360.75;5091892;28;20472;-66
2021/03/06 04:05:18;;;;;;;19.47;13.23;;;;;;;8.14;45.15;95351.09;5091888;28;20592;-72
2021/03/06 04:07:47;;;;;;;20.00;13.73;;;;;;;8.11;45.91;95369.03;5092668;28;20461;-69
2021/03/06 04:10:19;;;;;;;22.17;14.00;;;;;;;7.84;46.24;95367.91;5092188;28;20451;-68
2021/03/06 04:12:46;;;;;;;19.93;13.73;;;;;;;7.87;46.88;95375.25;5092126;28;20445;-66
2021/03/06 04:15:15;;;;;;;18.13;13.73;;;;;;;7.88;46.76;95380.25;5092014;28;20537;-68
2021/03/06 04:17:42;;;;;;;26.37;14.13;;;;;;;7.92;46.85;95378.78;5091922;28;20508;-69
2021/03/06 04:20:11;;;;;;;24.43;14.10;;;;;;;7.97;46.69;95378.88;5091787;28;20440;-67
2021/03/06 04:22:38;;;;;;;23.10;14.03;;;;;;;8.04;46.21;95384.00;5091463;28;20560;-67
2021/03/06 04:25:06;;;;;;;23.70;14.57;;;;;;;8.02;46.82;95384.25;5091664;28;20440;-67
2021/03/06 04:27:34;;;;;;;20.03;14.03;;;;;;;8.09;47.06;95381.50;5091596;28;20437;-69
2021/03/06 04:30:00;;;;;;;22.57;14.40;;;;;;;8.01;47.07;95374.03;5091631;28;20472;-69
2021/03/06 04:32:28;;;;;;;22.73;13.40;;;;;;;8.17;46.92;95374.13;5091596;28;20447;-69
2021/03/06 04:34:54;;;;;;;24.37;14.23;;;;;;;8.27;47.27;95376.19;5091840;28;20438;-67
2021/03/06 04:37:21;;;;;;;22.03;13.37;;;;;;;8.10;47.79;95378.66;5091360;28;20460;-70
2021/03/06 04:39:47;;;;;;;23.40;14.57;;;;;;;8.16;47.61;95387.41;5091748;28;20437;-70
2021/03/06 04:42:13;;;;;;;23.23;14.13;;;;;;;8.19;47.50;95385.13;5091557;28;20473;-68
2021/03/06 04:44:40;;;;;;;23.70;14.53;;;;;;;8.23;47.65;95378.44;5091780;28;20445;-68
2021/03/06 04:47:06;;;;;;;22.27;14.70;;;;;;;8.10;48.43;95383.13;5091638;28;20441;-68
2021/03/06 04:49:33;;;;;;;22.90;14.97;;;;;;;8.03;48.49;95385.00;5091404;28;20425;-68
2021/03/06 04:51:59;;;;;;;28.37;15.33;;;;;;;8.02;49.05;95383.44;5091163;28;20560;-70
2021/03/06 04:54:27;;;;;;;22.37;14.97;;;;;;;7.87;49.88;95364.81;5091036;28;20453;-67
2021/03/06 04:57:08;;;;;;;22.00;14.70;;;;;;;8.05;49.85;95382.97;5089994;28;20440;-71
2021/03/06 04:59:34;;;;;;;21.77;14.73;;;;;;;7.80;50.63;95387.63;5095475;28;20453;-66
2021/03/06 05:02:00;;;;;;;26.10;15.37;;;;;;;8.08;50.00;95396.38;5097264;28;20486;-64
2021/03/06 05:04:29;;;;;;;21.63;14.93;;;;;;;8.11;50.77;95395.13;5110434;28;20559;-66
2021/03/06 05:06:55;;;;;;;23.73;16.40;;;;;;;7.91;51.51;95407.72;5110865;28;20443;-71
2021/03/06 05:09:22;;;;;;;26.80;17.37;;;;;;;7.87;52.42;95417.81;5088844;28;20492;-67
2021/03/06 05:11:48;;;;;;;24.30;16.73;;;;;;;7.84;52.75;95425.28;5090612;28;20430;-67
2021/03/06 05:14:15;;;;;;;27.27;17.50;;;;;;;7.73;52.92;95420.84;5089857;28;20958;-68
2021/03/06 05:16:42;;;;;;;26.63;18.63;;;;;;;7.82;53.38;95437.75;5090085;28;20449;-67
2021/03/06 05:19:08;;;;;;;32.23;19.23;;;;;;;7.64;54.33;95453.50;5089846;28;20896;-70
2021/03/06 05:21:35;;;;;;;31.63;20.33;;;;;;;7.55;54.44;95437.38;5089619;28;21036;-69
2021/03/06 05:24:06;;;;;;;28.83;19.83;;;;;;;7.45;55.20;95450.16;5089742;28;20521;-70
2021/03/06 05:26:33;;;;;;;32.97;19.00;;;;;;;7.36;55.35;95458.50;5089967;28;20502;-69
2021/03/06 05:29:00;;;;;;;37.23;21.33;;;;;;;7.31;55.91;95467.00;5088620;28;20445;-68
2021/03/06 05:31:28;;;;;;;30.90;19.10;;;;;;;7.50;55.62;95475.56;5092857;28;20468;-68
2021/03/06 05:33:55;;;;;;;34.13;21.30;;;;;;;7.44;55.68;95476.44;5108955;28;20440;-68
2021/03/06 05:36:21;;;;;;;33.23;22.37;;;;;;;7.24;57.61;95470.69;5089526;28;20805;-66
2021/03/06 05:38:48;;;;;;;40.80;24.43;;;;;;;6.96;59.28;95489.47;5088867;28;20479;-68
2021/03/06 05:41:18;;;;;;;38.55;24.92;;;;;;;6.97;60.21;95497.06;5089448;28;20954;-66
2021/03/06 05:43:45;;;;;;;34.08;24.05;;;;;;;6.78;60.96;95507.72;5089985;28;20207;-68
2021/03/06 05:46:14;;;;;;;42.15;27.10;;;;;;;6.71;61.51;95507.81;5089989;28;20640;-66
2021/03/06 05:48:40;;;;;;;37.47;26.00;;;;;;;6.83;61.71;95516.47;5089951;28;20620;-68
2021/03/06 05:51:07;;;;;;;41.07;26.30;;;;;;;6.78;61.65;95518.94;5089240;28;20562;-67
2021/03/06 05:53:38;;;;;;;38.58;24.70;;;;;;;6.71;62.57;95528.63;5089771;28;20460;-65
2021/03/06 05:56:07;;;;;;;45.42;26.95;;;;;;;6.81;62.49;95534.13;5089253;28;20202;-67
2021/03/06 05:58:34;;;;;;;39.33;25.53;;;;;;;6.71;63.19;95544.25;5089818;28;20224;-67
2021/03/06 06:01:02;;;;;;;42.17;27.35;;;;;;;6.69;63.61;95546.28;5088923;28;20460;-66
2021/03/06 06:03:30;;;;;;;31.63;23.17;;;;;;;6.75;63.83;95545.41;5090014;28;20236;-69
2021/03/06 06:05:58;;;;;;;31.35;20.65;;;;;;;6.73;63.48;95563.03;5089307;28;20465;-67
2021/03/06 06:08:26;;;;;;;25.08;16.58;;;;;;;6.44;63.94;95562.94;5089206;28;20191;-70
2021/03/06 06:10:52;;;;;;;23.27;17.05;;;;;;;6.41;64.29;95571.97;5089939;28;20274;-68
2021/03/06 06:13:19;;;;;;;23.05;16.50;;;;;;;6.35;64.73;95572.03;5090428;28;20211;-68
2021/03/06 06:15:45;;;;;;;19.87;15.17;;;;;;;5.95;65.18;95600.09;5090678;28;20655;-70
2021/03/06 06:18:13;;;;;;;17.33;14.07;;;;;;;5.86;65.13;95593.56;5090228;28;20867;-68
2021/03/06 06:20:40;;;;;;;11.80;8.35;;;;;;;5.94;64.50;95609.72;5089157;28;20203;-67
2021/03/06 06:23:16;;;;;;;19.02;13.70;;;;;;;5.65;65.63;95614.66;5089264;28;20218;-65
2021/03/06 06:25:45;;;;;;;15.73;11.13;;;;;;;5.41;66.85;95610.94;5088584;28;20598;-68
2021/03/06 06:28:17;;;;;;;18.42;12.82;;;;;;;5.31;66.13;95617.59;5089998;28;20194;-69
2021/03/06 06:31:07;;;;;;;17.75;13.32;;;;;;;5.31;67.11;95633.94;5088956;28;20590;-67
2021/03/06 06:33:34;;;;;;;16.40;12.00;;;;;;;5.30;66.44;95641.97;5089482;28;20749;-68
2021/03/06 06:36:00;;;;;;;17.85;12.93;;;;;;;5.25;67.60;95649.56;5088885;28;20264;-68
2021/03/06 06:38:41;;;;;;;16.33;12.25;;;;;;;5.28;67.13;95664.75;5089416;28;20187;-65
2021/03/06 06:41:07;;;;;;;15.20;11.55;;;;;;;5.11;67.39;95660.00;5088602;28;20596;-67
2021/03/06 06:43:34;;;;;;;16.50;11.88;;;;;;;5.02;67.37;95674.19;5089201;28;20187;-68
2021/03/06 06:46:00;;;;;;;13.63;10.85;;;;;;;5.05;67.58;95686.75;5088694;28;20257;-67
2021/03/06 06:48:26;;;;;;;11.88;9.02;;;;;;;4.93;66.60;95698.78;5089345;28;20202;-68
2021/03/06 06:51:08;;;;;;;11.73;10.02;;;;;;;4.91;67.50;95705.97;5088308;28;20221;-65
2021/03/06 06:53:34;;;;;;;11.75;8.52;;;;;;;4.55;67.86;95721.13;5089096;28;20207;-70
2021/03/06 06:56:00;;;;;;;12.32;9.00;;;;;;;4.34;68.45;95733.47;5088489;28;20207;-67
2021/03/06 06:58:42;;;;;;;12.90;7.72;;;;;;;4.05;68.31;95724.22;5089003;28;20183;-69
2021/03/06 07:01:33;;;;;;;11.50;8.77;;;;;;;4.37;68.66;95731.28;5088384;28;20218;-67
2021/03/06 07:04:02;;;;;;;11.75;7.53;;;;;;;4.28;67.74;95729.84;5089133;28;20597;-67
2021/03/06 07:06:29;;;;;;;9.93;7.90;;;;;;;4.46;67.06;95740.47;5088336;28;20257;-67
2021/03/06 07:09:05;;;;;;;9.40;8.02;;;;;;;4.61;66.64;95746.31;5089086;28;20586;-65
2021/03/06 07:11:32;;;;;;;7.80;5.93;;;;;;;4.24;66.48;95739.03;5088346;28;20187;-73
2021/03/06 07:13:59;;;;;;;8.15;6.30;;;;;;;4.35;66.67;95755.81;5089299;28;20202;-66
2021/03/06 07:16:58;;;;;;;8.63;6.90;;;;;;;4.31;67.59;95764.97;5088711;28;20221;-69
2021/03/06 07:19:32;;;;;;;7.72;6.18;;;;;;;4.24;67.41;95770.16;5088357;28;20632;-68
2021/03/06 07:21:59;;;;;;;9.65;5.72;;;;;;;4.11;67.09;95770.09;5092300;28;20226;-68
2021/03/06 07:24:27;;;;;;;7.00;5.43;;;;;;;4.23;66.58;95770.34;5092218;28;20223;-68
2021/03/06 07:26:54;;;;;;;8.02;4.80;;;;;;;4.11;66.71;95783.88;5092485;28;20580;-67
2021/03/06 07:29:21;;;;;;;7.25;3.80;;;;;;;3.80;66.75;95773.16;5092253;28;20198;-69
2021/03/06 07:31:50;;;;;;;7.18;4.63;;;;;;;3.96;68.12;95787.59;5092190;28;20199;-69
2021/03/06 07:34:22;;;;;;;6.55;4.97;;;;;;;3.72;67.46;95780.31;5092096;28;20184;-69
2021/03/06 07:36:49;;;;;;;8.55;5.03;;;;;;;3.76;68.08;95802.25;5090584;28;20691;-69
2021/03/06 07:39:17;;;;;;;7.68;4.80;;;;;;;3.57;68.93;95805.53;5091952;28;20308;-71
2021/03/06 07:41:58;;;;;;;7.22;4.95;;;;;;;3.81;68.52;95811.03;5091801;28;20616;-67
2021/03/06 07:44:26;;;;;;;6.65;4.78;;;;;;;3.41;69.69;95804.03;5091988;28;20203;-68
2021/03/06 07:46:54;;;;;;;6.45;4.88;;;;;;;3.31;71.38;95823.47;5091935;28;20221;-70
2021/03/06 07:49:27;;;;;;;6.63;5.10;;;;;;;3.47;71.35;95823.19;5091607;28;20202;-68
2021/03/06 07:51:56;;;;;;;7.03;4.85;;;;;;;3.51;71.24;95829.59;5091897;28;20210;-69
2021/03/06 07:54:24;;;;;;;7.10;4.78;;;;;;;3.57;70.82;95828.84;5092056;28;20235;-68
2021/03/06 07:56:51;;;;;;;6.88;5.25;;;;;;;3.77;70.52;95824.59;5093085;28;20644;-70
2021/03/06 07:59:46;;;;;;;8.35;4.60;;;;;;;3.72;70.93;95826.97;5091832;28;20253;-68
2021/03/06 08:02:37;;;;;;;6.63;5.20;;;;;;;3.61;71.01;95835.25;5091867;28;20285;-68
2021/03/06 08:05:06;;;;;;;8.20;4.53;;;;;;;3.75;70.64;95831.75;5092027;28;20234;-69
2021/03/06 08:07:44;;;;;;;6.85;4.50;;;;;;;3.80;69.97;95842.34;5093678;28;20194;-68
2021/03/06 08:10:13;;;;;;;7.38;3.95;;;;;;;3.87;70.13;95840.59;5091595;28;20682;-68
2021/03/06 08:12:40;;;;;;;9.85;4.00;;;;;;;4.09;70.36;95847.28;5092111;28;20191;-68
2021/03/06 08:15:41;;;;;;;5.97;4.10;;;;;;;3.81;70.03;95849.16;5091595;28;20555;-68
2021/03/06 08:18:32;;;;;;;5.35;3.58;;;;;;;3.60;70.46;95859.56;5029330;28;20205;-68
2021/03/06 08:21:27;;;;;;;5.65;3.25;;;;;;;3.61;69.51;95861.94;5088811;28;20276;-71
2021/03/06 08:24:15;;;;;;;7.30;4.30;;;;;;;3.75;70.55;95868.84;5081437;28;20214;-68
2021/03/06 08:27:12;;;;;;;11.55;5.97;;;;;;;3.80;70.74;95868.28;5091506;28;20191;-68
2021/03/06 08:29:54;;;;;;;6.45;4.00;;;;;;;3.57;70.17;95871.13;5091132;28;20214;-64
2021/03/06 08:32:24;;;;;;;7.65;4.95;;;;;;;4.21;72.17;95871.72;5090763;28;20983;-67
2021/03/06 08:34:53;;;;;;;4.80;3.85;;;;;;;4.10;67.96;95874.84;5090870;28;20635;-65
2021/03/06 08:37:19;;;;;;;6.22;3.97;;;;;;;4.19;67.43;95876.28;5091295;28;20199;-68
2021/03/06 08:39:53;;;;;;;5.32;3.90;;;;;;;3.80;68.36;95886.41;5091031;28;20211;-70
2021/03/06 08:42:43;;;;;;;6.13;4.10;;;;;;;3.36;70.19;95889.25;5088867;28;20231;-73
2021/03/06 08:45:14;;;;;;;6.05;3.88;;;;;;;3.25;70.09;95886.41;5105960;28;20683;-69
2021/03/06 08:47:47;;;;;;;5.63;3.90;;;;;;;3.06;70.25;95882.63;5090655;28;20198;-71
2021/03/06 08:50:16;;;;;;;13.02;7.72;;;;;;;3.07;70.67;95895.38;5090312;28;20274;-73
2021/03/06 08:53:13;;;;;;;35.22;22.42;;;;;;;3.38;69.13;95897.66;5090620;28;20195;-70
2021/03/06 08:55:42;;;;;;;9.73;5.00;;;;;;;3.28;69.26;95894.59;5081818;28;20207;-67
2021/03/06 08:58:11;;;;;;;6.63;4.82;;;;;;;3.77;67.88;95908.34;5090212;28;20202;-71
2021/03/06 09:00:40;;;;;;;7.57;4.28;;;;;;;3.56;66.88;95916.16;5090020;28;20199;-67
2021/03/06 09:03:26;;;;;;;6.72;5.25;;;;;;;3.49;67.61;95911.88;5089379;28;20722;-70
2021/03/06 09:05:56;;;;;;;11.15;4.40;;;;;;;3.38;68.04;95912.38;5097876;28;20248;-69
2021/03/06 09:08:24;;;;;;;7.00;4.97;;;;;;;3.21;69.03;95926.59;5097773;28;20195;-69
2021/03/06 09:10:52;;;;;;;85.53;58.10;;;;;;;3.42;68.50;95924.81;5089442;28;20615;-68
2021/03/06 09:13:21;;;;;;;40.10;24.73;;;;;;;3.41;68.76;95930.19;5089756;28;20187;-68
2021/03/06 09:15:57;;;;;;;9.15;5.32;;;;;;;3.46;68.43;95930.41;5089629;28;20324;-69
2021/03/06 09:18:25;;;;;;;9.23;5.35;;;;;;;3.00;68.91;95935.94;5089940;28;20182;-71
2021/03/06 09:21:09;;;;;;;7.40;4.82;;;;;;;2.83;68.42;95938.91;5089917;28;20204;-72
2021/03/06 09:23:46;;;;;;;7.38;4.70;;;;;;;2.78;68.51;95942.06;5090003;28;20202;-73
2021/03/06 09:26:15;;;;;;;4.90;3.97;;;;;;;3.01;68.29;95953.06;5090800;28;20191;-69
2021/03/06 09:28:43;;;;;;;5.78;4.43;;;;;;;2.92;69.03;95949.00;5091497;28;20678;-72
2021/03/06 09:31:17;;;;;;;6.28;4.40;;;;;;;2.84;68.77;95954.28;5090057;28;20710;-71
2021/03/06 09:33:44;;;;;;;8.50;4.80;;;;;;;2.85;69.48;95953.31;5089598;28;20683;-73
2021/03/06 09:36:17;;;;;;;7.15;4.90;;;;;;;2.93;68.63;95955.78;5089084;28;20184;-69
2021/03/06 09:38:54;;;;;;;6.60;4.75;;;;;;;2.97;69.25;95957.00;5089738;28;20699;-72
2021/03/06 09:41:23;;;;;;;6.50;4.45;;;;;;;2.71;69.30;95961.09;5089160;28;20664;-73
2021/03/06 09:43:53;;;;;;;93.05;58.25;;;;;;;2.69;70.58;95963.88;5088813;28;20194;-68
2021/03/06 09:46:26;;;;;;;65.93;42.97;;;;;;;2.99;70.31;95952.44;5088887;28;20195;-71
2021/03/06 09:48:56;;;;;;;10.88;6.70;;;;;;;3.02;69.36;95959.88;5091243;28;20636;-69
2021/03/06 09:51:36;;;;;;;9.20;6.40;;;;;;;3.31;69.18;95958.16;5105590;28;20640;-69
2021/03/06 09:54:03;;;;;;;11.02;6.80;;;;;;;3.09;69.24;95950.38;5089350;28;20748;-67
2021/03/06 09:56:29;;;;;;;9.73;5.82;;;;;;;2.89;68.88;95971.84;5088796;28;20198;-70
2021/03/06 09:59:05;;;;;;;8.85;6.50;;;;;;;3.03;69.04;95971.81;5089072;28;20213;-72
2021/03/06 10:01:33;;;;;;;10.10;6.60;;;;;;;3.15;68.58;95968.75;5095434;27;20289;-69
2021/03/06 10:04:14;;;;;;;7.40;5.80;;;;;;;2.92;67.87;95980.06;5108712;28;20183;-71
2021/03/06 10:06:45;;;;;;;14.73;8.80;;;;;;;3.01;70.15;95981.56;5108989;28;20313;-68
2021/03/06 10:09:13;;;;;;;11.00;7.45;;;;;;;2.91;68.66;95983.66;5109609;28;20541;-68
2021/03/06 10:11:45;;;;;;;9.77;6.18;;;;;;;3.10;68.33;95983.03;5108782;28;20208;-72
2021/03/06 10:14:16;;;;;;;9.77;7.13;;;;;;;2.95;68.55;95989.25;5109457;28;20292;-70
2021/03/06 10:16:49;;;;;;;11.50;7.35;;;;;;;3.01;68.00;95984.16;5109522;28;20191;-70
2021/03/06 10:19:18;;;;;;;9.63;6.85;;;;;;;3.15;67.96;95985.09;5108779;28;20210;-71
2021/03/06 10:21:57;;;;;;;77.20;24.02;;;;;;;2.95;68.49;95999.63;5109755;28;20230;-71
2021/03/06 10:24:24;;;;;;;8.43;5.78;;;;;;;2.89;67.88;95985.59;5109649;28;20564;-67
2021/03/06 10:26:58;;;;;;;36.55;16.27;;;;;;;3.07;68.11;95988.59;5109173;28;20213;-69
2021/03/06 10:29:27;;;;;;;20.00;9.93;;;;;;;3.00;67.55;95995.50;5108637;28;20293;-69
2021/03/06 10:32:01;;;;;;;92.88;56.60;;;;;;;3.02;68.34;95995.31;5109582;28;20636;-68
2021/03/06 10:34:49;;;;;;;15.85;9.75;;;;;;;3.12;68.14;95984.66;5110565;28;20226;-69
2021/03/06 10:37:19;;;;;;;12.98;9.00;;;;;;;3.20;68.08;95992.31;5110064;28;20190;-70
2021/03/06 10:39:49;;;;;;;12.32;8.10;;;;;;;3.28;68.09;95984.44;5110267;28;20276;-68
2021/03/06 10:42:16;;;;;;;15.35;8.52;;;;;;;3.00;68.79;95987.72;5107691;28;20226;-70
2021/03/06 10:44:42;;;;;;;12.10;8.32;;;;;;;3.10;69.02;95983.03;5111399;28;20198;-69
2021/03/06 10:47:10;;;;;;;12.55;8.00;;;;;;;3.05;68.51;95984.59;5112854;28;20198;-68
2021/03/06 10:49:42;;;;;;;13.15;8.75;;;;;;;3.28;68.14;95987.03;5115010;28;20289;-70
2021/03/06 10:52:24;;;;;;;10.70;7.85;;;;;;;3.24;67.64;95988.38;5111784;28;20305;-68
2021/03/06 10:54:52;;;;;;;11.95;8.07;;;;;;;3.15;67.99;95982.50;5108773;28;20301;-67
2021/03/06 10:57:19;;;;;;;13.07;8.18;;;;;;;3.33;66.71;95976.91;5113341;28;20190;-70
2021/03/06 10:59:46;;;;;;;16.15;10.52;;;;;;;3.48;66.54;95983.66;5112263;28;20191;-68
2021/03/06 11:02:29;;;;;;;74.22;49.10;;;;;;;3.65;67.26;95981.63;5112896;28;20206;-68
2021/03/06 11:05:19;;;;;;;14.27;9.27;;;;;;;3.73;66.50;95989.25;5110529;28;20633;-70
2021/03/06 11:07:46;;;;;;;13.15;8.98;;;;;;;3.91;65.81;95976.63;5113101;28;20309;-70
2021/03/06 11:10:15;;;;;;;13.13;9.20;;;;;;;3.94;65.05;95976.28;5111983;28;20328;-68
2021/03/06 11:12:56;;;;;;;14.25;9.02;;;;;;;4.02;64.08;95968.34;5112294;28;20174;-68
2021/03/06 11:15:28;;;;;;;15.48;8.95;;;;;;;4.06;63.06;95972.97;5112871;28;20635;-69
2021/03/06 11:17:58;;;;;;;13.52;8.15;;;;;;;4.05;62.93;95968.00;5112881;28;20248;-68
2021/03/06 11:20:30;;;;;;;12.00;8.35;;;;;;;4.15;62.99;95973.63;5112170;28;20198;-68
2021/03/06 11:23:01;;;;;;;12.52;7.95;;;;;;;4.06;61.43;95954.00;5112504;28;20224;-66
2021/03/06 11:25:29;;;;;;;14.65;8.20;;;;;;;4.04;61.49;95963.78;5111552;28;20214;-69
2021/03/06 11:28:00;;;;;;;12.30;8.07;;;;;;;3.48;63.02;95967.31;5112315;28;20187;-70
2021/03/06 11:30:37;;;;;;;11.68;8.15;;;;;;;3.76;62.44;95963.75;5112055;28;20807;-68
2021/03/06 11:33:05;;;;;;;11.00;7.43;;;;;;;3.86;60.95;95958.25;5112643;28;20206;-69
2021/03/06 11:35:32;;;;;;;15.85;7.53;;;;;;;3.86;60.52;95958.25;5112185;28;20194;-73
2021/03/06 11:37:59;;;;;;;14.30;8.15;;;;;;;3.90;60.40;95954.31;5103830;28;20220;-68
2021/03/06 11:40:29;;;;;;;9.68;7.15;;;;;;;4.01;59.31;95948.59;5111637;28;20186;-66
2021/03/06 11:42:56;;;;;;;10.95;7.68;;;;;;;4.28;59.62;95949.56;5112403;28;20249;-67
2021/03/06 11:45:22;;;;;;;12.25;8.02;;;;;;;4.55;59.88;95946.94;5111735;28;20277;-70
2021/03/06 11:47:51;;;;;;;11.25;8.57;;;;;;;4.75;59.60;95937.44;5112139;28;21340;-69